sensor_id;sensor_type;location;lat;lon;timestamp;pressure;altitude;pressure_sealevel;temperature;humidity
41513;BME280;27244;59.940;30.280;2023-03-24T00:01:40;99504.06;;;23.49;30.01
41513;BME280;27244;59.940;30.280;2023-03-24T00:04:12;99496.25;;;23.53;29.86
41513;BME280;27244;59.940;30.280;2023-03-24T00:06:40;99497.66;;;23.49;29.90
41513;BME280;27244;59.940;30.280;2023-03-24T00:09:09;99494.38;;;23.50;29.94
41513;BME280;27244;59.940;30.280;2023-03-24T00:11:37;99498.59;;;23.46;29.76
41513;BME280;27244;59.940;30.280;2023-03-24T00:14:04;99500.47;;;23.49;29.76
41513;BME280;27244;59.940;30.280;2023-03-24T00:16:36;99491.56;;;23.50;29.68
41513;BME280;27244;59.940;30.280;2023-03-24T00:19:07;99498.72;;;23.51;29.68
41513;BME280;27244;59.940;30.280;2023-03-24T00:21:36;99489.53;;;23.51;29.60
41513;BME280;27244;59.940;30.280;2023-03-24T00:24:07;99478.13;;;23.45;29.59
41513;BME280;27244;59.940;30.280;2023-03-24T00:26:36;99484.38;;;23.49;29.49
41513;BME280;27244;59.940;30.280;2023-03-24T00:29:04;99487.19;;;23.49;29.58
41513;BME280;27244;59.940;30.280;2023-03-24T00:31:32;99482.00;;;23.48;29.37
41513;BME280;27244;59.940;30.280;2023-03-24T00:34:05;99472.81;;;23.47;29.38
41513;BME280;27244;59.940;30.280;2023-03-24T00:36:34;99476.09;;;23.46;29.33
41513;BME280;27244;59.940;30.280;2023-03-24T00:39:03;99478.13;;;23.45;29.30
41513;BME280;27244;59.940;30.280;2023-03-24T00:41:33;99477.94;;;23.49;29.22
41513;BME280;27244;59.940;30.280;2023-03-24T00:44:00;99475.78;;;23.44;29.31
41513;BME280;27244;59.940;30.280;2023-03-24T00:46:32;99473.72;;;23.44;29.23
41513;BME280;27244;59.940;30.280;2023-03-24T00:49:01;99469.06;;;23.41;29.41
41513;BME280;27244;59.940;30.280;2023-03-24T00:51:32;99482.34;;;23.50;28.98
41513;BME280;27244;59.940;30.280;2023-03-24T00:54:00;99484.38;;;23.49;29.21
41513;BME280;27244;59.940;30.280;2023-03-24T00:56:30;99472.03;;;23.47;29.22
41513;BME280;27244;59.940;30.280;2023-03-24T00:58:58;99475.63;;;23.47;29.01
41513;BME280;27244;59.940;30.280;2023-03-24T01:01:28;99465.28;;;23.44;29.20
41513;BME280;27244;59.940;30.280;2023-03-24T01:03:58;99469.22;;;23.47;28.91
41513;BME280;27244;59.940;30.280;2023-03-24T01:06:25;99462.19;;;23.42;28.98
41513;BME280;27244;59.940;30.280;2023-03-24T01:08:53;99457.34;;;23.43;29.00
41513;BME280;27244;59.940;30.280;2023-03-24T01:11:20;99447.00;;;23.40;28.76
41513;BME280;27244;59.940;30.280;2023-03-24T01:13:51;99450.47;;;23.44;28.95
41513;BME280;27244;59.940;30.280;2023-03-24T01:16:19;99445.44;;;23.39;29.12
41513;BME280;27244;59.940;30.280;2023-03-24T01:18:50;99448.09;;;23.42;29.09
41513;BME280;27244;59.940;30.280;2023-03-24T01:21:17;99451.72;;;23.43;29.01
41513;BME280;27244;59.940;30.280;2023-03-24T01:23:44;99445.72;;;23.41;29.25
41513;BME280;27244;59.940;30.280;2023-03-24T01:26:12;99440.09;;;23.41;29.08
41513;BME280;27244;59.940;30.280;2023-03-24T01:28:39;99432.47;;;23.41;28.99
41513;BME280;27244;59.940;30.280;2023-03-24T01:31:10;99436.84;;;23.42;29.09
41513;BME280;27244;59.940;30.280;2023-03-24T01:33:37;99439.34;;;23.40;29.14
41513;BME280;27244;59.940;30.280;2023-03-24T01:36:06;99444.19;;;23.40;29.03
41513;BME280;27244;59.940;30.280;2023-03-24T01:38:33;99438.22;;;23.38;29.13
41513;BME280;27244;59.940;30.280;2023-03-24T01:41:00;99441.84;;;23.38;29.12
41513;BME280;27244;59.940;30.280;2023-03-24T01:43:30;99446.53;;;23.41;29.09
41513;BME280;27244;59.940;30.280;2023-03-24T01:46:01;99443.72;;;23.41;29.17
41513;BME280;27244;59.940;30.280;2023-03-24T01:48:37;99447.66;;;23.44;29.17
41513;BME280;27244;59.940;30.280;2023-03-24T01:51:09;99449.34;;;23.41;29.06
41513;BME280;27244;59.940;30.280;2023-03-24T01:53:41;99442.63;;;23.39;29.14
41513;BME280;27244;59.940;30.280;2023-03-24T01:56:09;99436.38;;;23.35;29.16
41513;BME280;27244;59.940;30.280;2023-03-24T01:58:40;99437.41;;;23.56;29.23
41513;BME280;27244;59.940;30.280;2023-03-24T02:01:30;99435.75;;;23.40;29.07
41513;BME280;27244;59.940;30.280;2023-03-24T02:04:41;99440.91;;;23.41;29.03
41513;BME280;27244;59.940;30.280;2023-03-24T02:07:11;99435.75;;;23.40;29.07
41513;BME280;27244;59.940;30.280;2023-03-24T02:09:40;99434.16;;;23.39;29.03
41513;BME280;27244;59.940;30.280;2023-03-24T02:12:07;99419.66;;;23.31;29.17
41513;BME280;27244;59.940;30.280;2023-03-24T02:14:34;99432.31;;;23.36;28.97
41513;BME280;27244;59.940;30.280;2023-03-24T02:17:17;99428.41;;;23.42;29.15
41513;BME280;27244;59.940;30.280;2023-03-24T02:20:15;99426.66;;;23.45;29.07
41513;BME280;27244;59.940;30.280;2023-03-24T02:29:10;99442.91;;;23.41;29.24
41513;BME280;27244;59.940;30.280;2023-03-24T02:31:54;99433.09;;;23.36;29.38
41513;BME280;27244;59.940;30.280;2023-03-24T02:35:05;99439.22;;;23.44;29.38
41513;BME280;27244;59.940;30.280;2023-03-24T02:38:21;99439.22;;;23.44;29.50
41513;BME280;27244;59.940;30.280;2023-03-24T02:40:59;99442.63;;;23.39;29.33
41513;BME280;27244;59.940;30.280;2023-03-24T02:43:36;99437.78;;;23.39;29.26
41513;BME280;27244;59.940;30.280;2023-03-24T02:46:11;99428.38;;;23.33;29.22
41513;BME280;27244;59.940;30.280;2023-03-24T02:49:00;99433.56;;;23.35;29.21
41513;BME280;27244;59.940;30.280;2023-03-24T02:51:35;99446.69;;;23.38;29.26
41513;BME280;27244;59.940;30.280;2023-03-24T02:54:09;99441.03;;;23.38;29.17
41513;BME280;27244;59.940;30.280;2023-03-24T02:56:43;99444.19;;;23.40;29.21
41513;BME280;27244;59.940;30.280;2023-03-24T02:59:33;99441.03;;;23.38;29.17
41513;BME280;27244;59.940;30.280;2023-03-24T03:02:07;99440.44;;;23.34;29.16
41513;BME280;27244;59.940;30.280;2023-03-24T03:04:41;99442.16;;;23.31;29.19
41513;BME280;27244;59.940;30.280;2023-03-24T03:07:12;99451.22;;;23.35;28.95
41513;BME280;27244;59.940;30.280;2023-03-24T03:09:46;99449.81;;;23.40;29.15
41513;BME280;27244;59.940;30.280;2023-03-24T03:12:18;99449.03;;;23.39;29.22
41513;BME280;27244;59.940;30.280;2023-03-24T03:14:46;99448.38;;;23.53;29.09
41513;BME280;27244;59.940;30.280;2023-03-24T03:17:17;99442.63;;;23.39;29.07
41513;BME280;27244;59.940;30.280;2023-03-24T03:19:49;99441.03;;;23.38;29.23
41513;BME280;27244;59.940;30.280;2023-03-24T03:22:21;99439.47;;;23.37;29.05
41513;BME280;27244;59.940;30.280;2023-03-24T03:24:52;99433.09;;;23.36;29.17
41513;BME280;27244;59.940;30.280;2023-03-24T03:27:24;99435.13;;;23.36;29.13
41513;BME280;27244;59.940;30.280;2023-03-24T03:29:56;99440.25;;;23.37;29.05
41513;BME280;27244;59.940;30.280;2023-03-24T03:32:27;99428.22;;;23.37;29.03
41513;BME280;27244;59.940;30.280;2023-03-24T03:34:59;99427.75;;;23.38;29.03
41513;BME280;27244;59.940;30.280;2023-03-24T03:37:32;99440.59;;;23.39;29.01
41513;BME280;27244;59.940;30.280;2023-03-24T03:40:06;99439.47;;;23.37;29.04
41513;BME280;27244;59.940;30.280;2023-03-24T03:42:41;99416.72;;;23.26;29.00
41513;BME280;27244;59.940;30.280;2023-03-24T03:45:09;99449.19;;;23.36;29.09
41513;BME280;27244;59.940;30.280;2023-03-24T03:47:37;99442.00;;;23.35;29.04
41513;BME280;27244;59.940;30.280;2023-03-24T03:50:06;99437.78;;;23.30;29.06
41513;BME280;27244;59.940;30.280;2023-03-24T03:52:35;99442.00;;;23.35;29.03
41513;BME280;27244;59.940;30.280;2023-03-24T03:55:03;99446.38;;;23.36;28.98
41513;BME280;27244;59.940;30.280;2023-03-24T03:57:31;99446.84;;;23.34;28.99
41513;BME280;27244;59.940;30.280;2023-03-24T04:00:21;99439.34;;;23.31;29.10
41513;BME280;27244;59.940;30.280;2023-03-24T04:03:29;99434.81;;;23.43;29.05
41513;BME280;27244;59.940;30.280;2023-03-24T04:06:01;99445.09;;;23.37;28.90
41513;BME280;27244;59.940;30.280;2023-03-24T04:08:42;99443.41;;;23.39;29.04
41513;BME280;27244;59.940;30.280;2023-03-24T04:14:43;99443.41;;;23.39;29.07
41513;BME280;27244;59.940;30.280;2023-03-24T04:18:08;99452.50;;;23.43;28.99
41513;BME280;27244;59.940;30.280;2023-03-24T04:21:05;99454.16;;;23.41;30.41
41513;BME280;27244;59.940;30.280;2023-03-24T04:23:42;99460.94;;;23.43;30.15
41513;BME280;27244;59.940;30.280;2023-03-24T04:26:20;99464.81;;;23.46;29.69
41513;BME280;27244;59.940;30.280;2023-03-24T04:29:01;99460.09;;;23.52;29.17
41513;BME280;27244;59.940;30.280;2023-03-24T04:31:32;99453.53;;;23.55;28.91
41513;BME280;27244;59.940;30.280;2023-03-24T04:34:10;99452.00;;;23.54;28.84
41513;BME280;27244;59.940;30.280;2023-03-24T04:36:43;99459.00;;;23.59;28.65
41513;BME280;27244;59.940;30.280;2023-03-24T04:39:29;99466.97;;;23.60;28.56
41513;BME280;27244;59.940;30.280;2023-03-24T04:42:06;99452.91;;;23.60;28.37
41513;BME280;27244;59.940;30.280;2023-03-24T04:44:35;99458.06;;;23.62;28.25
41513;BME280;27244;59.940;30.280;2023-03-24T04:47:18;99458.84;;;23.62;28.24
41513;BME280;27244;59.940;30.280;2023-03-24T04:50:02;99455.06;;;23.65;28.30
41513;BME280;27244;59.940;30.280;2023-03-24T04:52:33;99458.69;;;23.66;28.22
41513;BME280;27244;59.940;30.280;2023-03-24T04:55:02;99441.81;;;23.57;28.06
41513;BME280;27244;59.940;30.280;2023-03-24T04:57:31;99456.03;;;23.62;28.16
41513;BME280;27244;59.940;30.280;2023-03-24T05:00:05;99462.41;;;23.63;28.30
41513;BME280;27244;59.940;30.280;2023-03-24T05:02:36;99464.47;;;23.62;28.24
41513;BME280;27244;59.940;30.280;2023-03-24T05:05:10;99458.97;;;23.68;28.33
41513;BME280;27244;59.940;30.280;2023-03-24T05:07:42;99459.75;;;23.68;28.42
41513;BME280;27244;59.940;30.280;2023-03-24T05:10:12;99461.31;;;23.69;28.81
41513;BME280;27244;59.940;30.280;2023-03-24T05:12:44;99460.38;;;23.72;28.98
41513;BME280;27244;59.940;30.280;2023-03-24T05:15:32;99466.28;;;23.74;29.14
41513;BME280;27244;59.940;30.280;2023-03-24T05:18:19;99468.16;;;23.77;29.15
41513;BME280;27244;59.940;30.280;2023-03-24T05:20:47;99469.91;;;23.75;29.47
41513;BME280;27244;59.940;30.280;2023-03-24T05:23:21;99468.81;;;23.72;31.29
41513;BME280;27244;59.940;30.280;2023-03-24T05:25:50;99473.78;;;23.77;30.40
41513;BME280;27244;59.940;30.280;2023-03-24T05:28:22;99460.38;;;23.72;30.08
41513;BME280;27244;59.940;30.280;2023-03-24T05:30:51;99470.50;;;23.79;29.87
41513;BME280;27244;59.940;30.280;2023-03-24T05:33:50;99471.59;;;23.81;29.91
41513;BME280;27244;59.940;30.280;2023-03-24T05:36:20;99480.34;;;23.83;29.77
41513;BME280;27244;59.940;30.280;2023-03-24T05:38:56;99481.59;;;23.82;29.72
41513;BME280;27244;59.940;30.280;2023-03-24T05:41:31;99478.00;;;23.82;29.83
41513;BME280;27244;59.940;30.280;2023-03-24T05:43:58;99485.66;;;23.81;29.89
41513;BME280;27244;59.940;30.280;2023-03-24T05:46:25;99481.28;;;23.80;29.87
41513;BME280;27244;59.940;30.280;2023-03-24T05:48:53;99484.41;;;23.82;29.82
41513;BME280;27244;59.940;30.280;2023-03-24T05:51:23;99487.22;;;23.82;29.95
41513;BME280;27244;59.940;30.280;2023-03-24T05:53:59;99488.81;;;23.83;29.94
41513;BME280;27244;59.940;30.280;2023-03-24T05:56:39;99491.91;;;23.85;29.90
41513;BME280;27244;59.940;30.280;2023-03-24T05:59:17;99494.91;;;23.82;30.01
41513;BME280;27244;59.940;30.280;2023-03-24T06:02:04;99496.28;;;23.86;29.95
41513;BME280;27244;59.940;30.280;2023-03-24T06:04:50;99484.41;;;23.82;30.13
41513;BME280;27244;59.940;30.280;2023-03-24T06:07:23;99489.56;;;23.84;30.15
41513;BME280;27244;59.940;30.280;2023-03-24T06:09:56;99498.94;;;23.90;30.11
41513;BME280;27244;59.940;30.280;2023-03-24T06:12:32;99498.16;;;23.89;30.20
41513;BME280;27244;59.940;30.280;2023-03-24T06:15:02;99483.47;;;23.85;30.25
41513;BME280;27244;59.940;30.280;2023-03-24T06:17:31;99492.88;;;23.82;30.20
41513;BME280;27244;59.940;30.280;2023-03-24T06:20:08;99493.31;;;23.90;30.22
41513;BME280;27244;59.940;30.280;2023-03-24T06:22:42;99496.41;;;23.92;30.25
41513;BME280;27244;59.940;30.280;2023-03-24T06:25:15;99492.97;;;23.88;30.36
41513;BME280;27244;59.940;30.280;2023-03-24T06:27:52;99495.34;;;23.89;30.17
41513;BME280;27244;59.940;30.280;2023-03-24T06:30:25;99481.44;;;23.86;30.25
41513;BME280;27244;59.940;30.280;2023-03-24T06:32:55;99488.47;;;23.90;30.25
41513;BME280;27244;59.940;30.280;2023-03-24T06:35:22;99492.06;;;23.91;30.38
41513;BME280;27244;59.940;30.280;2023-03-24T06:37:57;99490.00;;;23.91;30.37
41513;BME280;27244;59.940;30.280;2023-03-24T06:40:25;99484.25;;;23.86;30.34
41513;BME280;27244;59.940;30.280;2023-03-24T06:42:55;99499.22;;;23.92;30.37
41513;BME280;27244;59.940;30.280;2023-03-24T06:45:22;99491.56;;;23.92;30.35
41513;BME280;27244;59.940;30.280;2023-03-24T06:47:51;99495.94;;;23.93;30.30
41513;BME280;27244;59.940;30.280;2023-03-24T06:50:20;99491.56;;;23.92;30.36
41513;BME280;27244;59.940;30.280;2023-03-24T06:52:51;99488.47;;;23.90;30.50
41513;BME280;27244;59.940;30.280;2023-03-24T06:55:21;99489.25;;;23.91;30.50
41513;BME280;27244;59.940;30.280;2023-03-24T06:57:50;99478.72;;;23.91;30.51
41513;BME280;27244;59.940;30.280;2023-03-24T07:00:37;99482.34;;;23.92;30.61
41513;BME280;27244;59.940;30.280;2023-03-24T07:03:24;99483.44;;;23.94;30.51
41513;BME280;27244;59.940;30.280;2023-03-24T07:06:09;99481.25;;;23.89;30.57
41513;BME280;27244;59.940;30.280;2023-03-24T07:08:37;99482.34;;;23.92;30.68
41513;BME280;27244;59.940;30.280;2023-03-24T07:11:06;99478.16;;;23.87;30.57
41513;BME280;27244;59.940;30.280;2023-03-24T07:13:39;99499.22;;;24.01;30.48
41513;BME280;27244;59.940;30.280;2023-03-24T07:16:07;99503.28;;;24.00;30.33
41513;BME280;27244;59.940;30.280;2023-03-24T07:18:37;99497.19;;;23.92;30.55
41513;BME280;27244;59.940;30.280;2023-03-24T07:21:05;99502.38;;;23.94;30.53
41513;BME280;27244;59.940;30.280;2023-03-24T07:23:34;99506.72;;;23.95;30.60
41513;BME280;27244;59.940;30.280;2023-03-24T07:26:23;99503.63;;;23.93;30.62
41513;BME280;27244;59.940;30.280;2023-03-24T07:28:57;99513.47;;;23.97;30.51
41513;BME280;27244;59.940;30.280;2023-03-24T07:31:54;99505.78;;;23.98;30.62
41513;BME280;27244;59.940;30.280;2023-03-24T07:34:23;99511.91;;;23.96;30.45
41513;BME280;27244;59.940;30.280;2023-03-24T07:36:52;99510.94;;;23.99;30.51
41513;BME280;27244;59.940;30.280;2023-03-24T07:39:19;99507.34;;;23.99;30.53
41513;BME280;27244;59.940;30.280;2023-03-24T07:41:47;99508.91;;;24.00;30.58
41513;BME280;27244;59.940;30.280;2023-03-24T07:44:26;99510.94;;;23.99;30.58
41513;BME280;27244;59.940;30.280;2023-03-24T07:46:53;99515.78;;;23.99;30.61
41513;BME280;27244;59.940;30.280;2023-03-24T07:49:20;99514.72;;;23.96;30.60
41513;BME280;27244;59.940;30.280;2023-03-24T07:51:57;99510.94;;;23.99;30.59
41513;BME280;27244;59.940;30.280;2023-03-24T07:54:31;99519.38;;;23.99;30.76
41513;BME280;27244;59.940;30.280;2023-03-24T07:57:00;99527.84;;;23.99;30.60
41513;BME280;27244;59.940;30.280;2023-03-24T07:59:28;99522.69;;;23.98;30.56
41513;BME280;27244;59.940;30.280;2023-03-24T08:02:11;99526.41;;;24.04;30.56
41513;BME280;27244;59.940;30.280;2023-03-24T08:04:50;99520.34;;;23.96;30.79
41513;BME280;27244;59.940;30.280;2023-03-24T08:07:46;99527.66;;;24.03;30.60
41513;BME280;27244;59.940;30.280;2023-03-24T08:10:19;99513.47;;;23.97;30.77
41513;BME280;27244;59.940;30.280;2023-03-24T08:12:49;99525.16;;;24.05;30.82
41513;BME280;27244;59.940;30.280;2023-03-24T08:15:20;99521.56;;;24.05;30.75
41513;BME280;27244;59.940;30.280;2023-03-24T08:17:47;99522.03;;;24.03;30.88
41513;BME280;27244;59.940;30.280;2023-03-24T08:20:15;99520.00;;;24.03;30.81
41513;BME280;27244;59.940;30.280;2023-03-24T08:22:45;99531.91;;;23.98;30.81
41513;BME280;27244;59.940;30.280;2023-03-24T08:25:15;99523.63;;;23.95;30.92
41513;BME280;27244;59.940;30.280;2023-03-24T08:27:45;99525.06;;;23.90;30.88
41513;BME280;27244;59.940;30.280;2023-03-24T08:30:15;99524.41;;;23.95;31.01
41513;BME280;27244;59.940;30.280;2023-03-24T08:32:44;99523.03;;;23.91;30.93
41513;BME280;27244;59.940;30.280;2023-03-24T08:35:11;99532.25;;;23.91;30.86
41513;BME280;27244;59.940;30.280;2023-03-24T08:37:42;99536.34;;;23.90;30.87
41513;BME280;27244;59.940;30.280;2023-03-24T08:40:11;99531.66;;;23.87;31.09
41513;BME280;27244;59.940;30.280;2023-03-24T08:42:41;99539.31;;;23.87;31.09
41513;BME280;27244;59.940;30.280;2023-03-24T08:45:11;99541.66;;;23.88;31.04
41513;BME280;27244;59.940;30.280;2023-03-24T08:47:39;99540.09;;;23.87;30.89
41513;BME280;27244;59.940;30.280;2023-03-24T08:50:07;99540.09;;;23.87;31.09
41513;BME280;27244;59.940;30.280;2023-03-24T08:52:34;99535.72;;;23.86;31.16
41513;BME280;27244;59.940;30.280;2023-03-24T08:55:02;99532.91;;;23.86;31.11
41513;BME280;27244;59.940;30.280;2023-03-24T08:57:29;99536.97;;;23.85;31.16
41513;BME280;27244;59.940;30.280;2023-03-24T08:59:56;99538.38;;;23.81;31.17
41513;BME280;27244;59.940;30.280;2023-03-24T09:02:23;99544.16;;;23.86;31.26
41513;BME280;27244;59.940;30.280;2023-03-24T09:04:52;99545.75;;;23.87;31.16
41513;BME280;27244;59.940;30.280;2023-03-24T09:07:21;99545.41;;;23.85;31.40
41513;BME280;27244;59.940;30.280;2023-03-24T09:09:48;99564.19;;;23.88;31.28
41513;BME280;27244;59.940;30.280;2023-03-24T09:12:15;99550.75;;;23.83;31.30
41513;BME280;27244;59.940;30.280;2023-03-24T09:14:47;99552.44;;;23.90;31.39
41513;BME280;27244;59.940;30.280;2023-03-24T09:17:14;99546.38;;;23.82;31.31
41513;BME280;27244;59.940;30.280;2023-03-24T09:19:41;99561.06;;;23.86;31.40
41513;BME280;27244;59.940;30.280;2023-03-24T09:22:10;99565.75;;;23.89;31.40
41513;BME280;27244;59.940;30.280;2023-03-24T09:24:37;99570.31;;;23.87;31.40
41513;BME280;27244;59.940;30.280;2023-03-24T09:27:04;99569.50;;;23.86;31.42
41513;BME280;27244;59.940;30.280;2023-03-24T09:29:31;99573.91;;;23.87;31.54
41513;BME280;27244;59.940;30.280;2023-03-24T09:31:58;99571.09;;;23.87;31.45
41513;BME280;27244;59.940;30.280;2023-03-24T09:34:26;99574.38;;;23.86;31.41
41513;BME280;27244;59.940;30.280;2023-03-24T09:36:53;99581.06;;;23.88;31.52
41513;BME280;27244;59.940;30.280;2023-03-24T09:39:21;99577.34;;;23.82;31.49
41513;BME280;27244;59.940;30.280;2023-03-24T09:41:49;99582.81;;;23.86;31.50
41513;BME280;27244;59.940;30.280;2023-03-24T09:44:23;99579.22;;;23.85;31.41
41513;BME280;27244;59.940;30.280;2023-03-24T09:46:53;99582.19;;;23.82;31.54
41513;BME280;27244;59.940;30.280;2023-03-24T09:49:25;99576.72;;;23.78;31.82
41513;BME280;27244;59.940;30.280;2023-03-24T09:51:57;99574.22;;;23.80;31.36
41513;BME280;27244;59.940;30.280;2023-03-24T09:54:32;99590.00;;;23.87;31.38
41513;BME280;27244;59.940;30.280;2023-03-24T09:57:03;99593.47;;;23.82;31.42
41513;BME280;27244;59.940;30.280;2023-03-24T09:59:33;99587.38;;;23.83;31.40
41513;BME280;27244;59.940;30.280;2023-03-24T10:02:09;99589.22;;;23.86;31.34
41513;BME280;27244;59.940;30.280;2023-03-24T10:04:40;99591.72;;;23.84;31.49
41513;BME280;27244;59.940;30.280;2023-03-24T10:07:13;99590.19;;;23.83;31.38
41513;BME280;27244;59.940;30.280;2023-03-24T10:09:44;99584.56;;;23.83;31.54
41513;BME280;27244;59.940;30.280;2023-03-24T10:12:20;99575.00;;;23.81;31.44
41513;BME280;27244;59.940;30.280;2023-03-24T10:14:57;99580.47;;;23.84;31.41
41513;BME280;27244;59.940;30.280;2023-03-24T10:17:35;99580.47;;;23.84;31.49
41513;BME280;27244;59.940;30.280;2023-03-24T10:20:14;99574.81;;;23.84;31.42
41513;BME280;27244;59.940;30.280;2023-03-24T10:22:49;99577.34;;;23.82;31.41
41513;BME280;27244;59.940;30.280;2023-03-24T10:25:24;99574.81;;;23.84;31.43
41513;BME280;27244;59.940;30.280;2023-03-24T10:27:55;99572.97;;;23.81;31.51
41513;BME280;27244;59.940;30.280;2023-03-24T10:30:25;99569.34;;;23.81;31.56
41513;BME280;27244;59.940;30.280;2023-03-24T10:32:54;99562.34;;;23.76;31.98
41513;BME280;27244;59.940;30.280;2023-03-24T10:35:27;99568.56;;;23.80;32.00
41513;BME280;27244;59.940;30.280;2023-03-24T10:37:57;99568.56;;;23.80;32.25
41513;BME280;27244;59.940;30.280;2023-03-24T10:40:30;99573.13;;;23.78;32.04
41513;BME280;27244;59.940;30.280;2023-03-24T10:42:57;99582.47;;;23.93;31.43
41513;BME280;27244;59.940;30.280;2023-03-24T10:45:27;99576.56;;;23.82;32.30
41513;BME280;27244;59.940;30.280;2023-03-24T10:47:58;99569.06;;;23.79;32.29
41513;BME280;27244;59.940;30.280;2023-03-24T10:50:27;99569.69;;;23.74;32.30
41513;BME280;27244;59.940;30.280;2023-03-24T10:52:55;99573.44;;;23.80;32.54
41513;BME280;27244;59.940;30.280;2023-03-24T10:55:29;99588.59;;;23.82;32.44
41513;BME280;27244;59.940;30.280;2023-03-24T10:57:58;99594.56;;;23.75;33.30
41513;BME280;27244;59.940;30.280;2023-03-24T11:00:27;99605.66;;;23.79;32.65
41513;BME280;27244;59.940;30.280;2023-03-24T11:02:58;99600.81;;;23.79;32.34
41513;BME280;27244;59.940;30.280;2023-03-24T11:05:28;99604.72;;;23.82;32.56
41513;BME280;27244;59.940;30.280;2023-03-24T11:08:19;99592.66;;;23.81;32.41
41513;BME280;27244;59.940;30.280;2023-03-24T11:10:54;99605.50;;;23.82;32.59
41513;BME280;27244;59.940;30.280;2023-03-24T11:13:28;99603.16;;;23.81;32.47
41513;BME280;27244;59.940;30.280;2023-03-24T11:16:10;99601.59;;;23.80;32.27
41513;BME280;27244;59.940;30.280;2023-03-24T11:18:56;99617.41;;;23.86;32.30
41513;BME280;27244;59.940;30.280;2023-03-24T11:21:30;99617.22;;;23.81;32.41
41513;BME280;27244;59.940;30.280;2023-03-24T11:24:07;99606.75;;;23.81;32.46
41513;BME280;27244;59.940;30.280;2023-03-24T11:26:38;99612.09;;;23.79;32.45
41513;BME280;27244;59.940;30.280;2023-03-24T11:29:07;99619.59;;;23.82;32.43
41513;BME280;27244;59.940;30.280;2023-03-24T11:31:41;99615.97;;;23.82;32.34
41513;BME280;27244;59.940;30.280;2023-03-24T11:34:16;99612.25;;;23.76;32.37
41513;BME280;27244;59.940;30.280;2023-03-24T11:36:51;99615.81;;;23.85;32.33
41513;BME280;27244;59.940;30.280;2023-03-24T11:39:21;99617.06;;;23.84;32.36
41513;BME280;27244;59.940;30.280;2023-03-24T11:42:00;99606.13;;;23.86;32.28
41513;BME280;27244;59.940;30.280;2023-03-24T11:44:40;99611.75;;;23.86;32.42
41513;BME280;27244;59.940;30.280;2023-03-24T11:47:21;99614.25;;;23.84;32.24
41513;BME280;27244;59.940;30.280;2023-03-24T11:49:53;99615.81;;;23.85;32.25
41513;BME280;27244;59.940;30.280;2023-03-24T11:52:37;99620.66;;;23.85;32.32
41513;BME280;27244;59.940;30.280;2023-03-24T11:55:17;99614.25;;;23.84;32.16
41513;BME280;27244;59.940;30.280;2023-03-24T11:57:52;99616.59;;;23.86;32.10
41513;BME280;27244;59.940;30.280;2023-03-24T12:00:25;99609.91;;;23.83;32.15
41513;BME280;27244;59.940;30.280;2023-03-24T12:03:17;99623.03;;;23.86;32.03
41513;BME280;27244;59.940;30.280;2023-03-24T12:05:51;99616.78;;;23.82;32.02
41513;BME280;27244;59.940;30.280;2023-03-24T12:08:45;99618.81;;;23.91;31.90
41513;BME280;27244;59.940;30.280;2023-03-24T12:11:19;99619.44;;;23.86;32.07
41513;BME280;27244;59.940;30.280;2023-03-24T12:14:03;99623.81;;;23.87;32.03
41513;BME280;27244;59.940;30.280;2023-03-24T12:16:42;99626.13;;;23.88;32.17
41513;BME280;27244;59.940;30.280;2023-03-24T12:19:43;99616.91;;;23.88;31.90
41513;BME280;27244;59.940;30.280;2023-03-24T12:22:19;99624.59;;;23.87;32.03
41513;BME280;27244;59.940;30.280;2023-03-24T12:25:13;99624.09;;;23.89;31.92
41513;BME280;27244;59.940;30.280;2023-03-24T12:27:50;99620.66;;;23.85;31.99
41513;BME280;27244;59.940;30.280;2023-03-24T12:30:28;99620.22;;;23.86;32.24
41513;BME280;27244;59.940;30.280;2023-03-24T12:33:05;99605.19;;;23.80;31.86
41513;BME280;27244;59.940;30.280;2023-03-24T12:35:50;99626.63;;;23.87;31.92
41513;BME280;27244;59.940;30.280;2023-03-24T12:38:33;99630.53;;;23.89;31.88
41513;BME280;27244;59.940;30.280;2023-03-24T12:41:17;99630.22;;;23.87;31.98
41513;BME280;27244;59.940;30.280;2023-03-24T12:44:01;99632.25;;;23.87;31.97
41513;BME280;27244;59.940;30.280;2023-03-24T12:46:50;99639.94;;;23.86;32.00
41513;BME280;27244;59.940;30.280;2023-03-24T12:50:03;99625.50;;;23.84;31.82
41513;BME280;27244;59.940;30.280;2023-03-24T12:52:54;99632.44;;;23.83;32.00
41513;BME280;27244;59.940;30.280;2023-03-24T12:55:29;99636.78;;;23.84;31.95
41513;BME280;27244;59.940;30.280;2023-03-24T12:58:03;99631.16;;;23.84;31.78
41513;BME280;27244;59.940;30.280;2023-03-24T13:00:34;99633.66;;;23.82;31.92
41513;BME280;27244;59.940;30.280;2023-03-24T13:03:11;99643.69;;;23.83;31.96
41513;BME280;27244;59.940;30.280;2023-03-24T13:05:42;99634.91;;;23.81;31.75
41513;BME280;27244;59.940;30.280;2023-03-24T13:08:13;99640.53;;;23.81;31.93
41513;BME280;27244;59.940;30.280;2023-03-24T13:10:42;99631.47;;;23.77;31.96
41513;BME280;27244;59.940;30.280;2023-03-24T13:13:16;99636.47;;;23.82;32.00
41513;BME280;27244;59.940;30.280;2023-03-24T13:15:46;99646.50;;;23.83;32.02
41513;BME280;27244;59.940;30.280;2023-03-24T13:18:24;99615.09;;;23.58;31.77
41513;BME280;27244;59.940;30.280;2023-03-24T13:20:55;99656.19;;;23.82;31.92
41513;BME280;27244;59.940;30.280;2023-03-24T13:23:39;99646.50;;;23.83;31.72
41513;BME280;27244;59.940;30.280;2023-03-24T13:26:22;99659.63;;;23.86;31.79
41513;BME280;27244;59.940;30.280;2023-03-24T13:28:59;99669.03;;;23.83;31.95
41513;BME280;27244;59.940;30.280;2023-03-24T13:31:30;99672.16;;;23.85;31.84
41513;BME280;27244;59.940;30.280;2023-03-24T13:34:19;99677.78;;;23.85;31.76
41513;BME280;27244;59.940;30.280;2023-03-24T13:36:49;99671.38;;;23.85;31.82